createdAt,value
2018-12-08T00:01:17.312Z,72.10
2018-12-08T00:03:44.871Z,71.50
2018-12-08T00:06:12.311Z,71.50
2018-12-08T00:08:39.731Z,71.30
2018-12-08T00:11:07.191Z,71.70
2018-12-08T00:13:34.636Z,71.80
2018-12-08T00:16:02.106Z,71.20
2018-12-08T00:18:29.542Z,71.30
2018-12-08T00:20:57.000Z,71.40
2018-12-08T00:23:24.763Z,71.50
2018-12-08T00:25:52.189Z,71.40
2018-12-08T00:28:19.790Z,71.30
2018-12-08T00:30:59.389Z,71.60
2018-12-08T00:33:26.817Z,71.70
2018-12-08T00:35:54.356Z,71.80
2018-12-08T00:38:21.823Z,72.00
2018-12-08T00:40:49.354Z,72.10
2018-12-08T00:43:16.855Z,72.00
2018-12-08T00:45:45.221Z,72.50
2018-12-08T00:48:12.674Z,72.10
2018-12-08T00:50:40.143Z,72.50
2018-12-08T00:53:07.594Z,72.30
2018-12-08T00:55:35.020Z,72.40
2018-12-08T00:58:02.530Z,72.40
2018-12-08T01:00:29.990Z,72.60
2018-12-08T01:02:57.610Z,72.30
2018-12-08T01:05:25.093Z,72.40
2018-12-08T01:07:52.549Z,72.50
2018-12-08T01:10:20.029Z,72.20
2018-12-08T01:12:47.457Z,72.20
2018-12-08T01:15:14.999Z,72.60
2018-12-08T01:17:42.547Z,72.70
2018-12-08T01:20:10.050Z,73.00
2018-12-08T01:22:37.570Z,73.20
2018-12-08T01:25:05.690Z,73.30
2018-12-08T01:27:33.112Z,73.70
2018-12-08T01:30:00.678Z,73.20
2018-12-08T01:32:28.138Z,73.50
2018-12-08T01:34:55.610Z,73.60
2018-12-08T01:37:23.979Z,73.50
2018-12-08T01:39:51.419Z,73.40
2018-12-08T01:42:18.875Z,73.60
2018-12-08T01:44:46.363Z,73.60
2018-12-08T01:47:13.800Z,73.80
2018-12-08T01:49:41.314Z,74.00
2018-12-08T01:52:08.849Z,73.90
2018-12-08T01:54:36.315Z,74.20
2018-12-08T01:57:03.743Z,74.20
2018-12-08T01:59:31.210Z,74.20
2018-12-08T02:01:58.616Z,74.00
2018-12-08T02:04:26.156Z,74.40
2018-12-08T02:06:53.619Z,75.30
2018-12-08T02:09:21.067Z,75.50
2018-12-08T02:11:48.513Z,75.60
2018-12-08T02:14:16.008Z,76.10
2018-12-08T02:16:44.412Z,76.50
2018-12-08T02:19:11.836Z,76.60
2018-12-08T02:21:39.348Z,76.50
2018-12-08T02:24:06.911Z,76.80
2018-12-08T02:26:35.360Z,77.50
2018-12-08T02:29:03.411Z,77.90
2018-12-08T02:31:30.920Z,77.60
2018-12-08T02:33:58.361Z,78.10
2018-12-08T02:36:25.807Z,77.90
2018-12-08T02:38:53.452Z,78.10
2018-12-08T02:41:21.011Z,78.00
2018-12-08T02:43:48.681Z,78.10
2018-12-08T02:46:17.120Z,78.00
2018-12-08T02:48:44.596Z,78.00
2018-12-08T02:51:12.035Z,77.60
2018-12-08T02:53:39.504Z,77.80
2018-12-08T02:56:07.036Z,77.70
2018-12-08T02:58:34.609Z,78.00
2018-12-08T03:01:02.057Z,78.10
2018-12-08T03:03:29.521Z,77.60
2018-12-08T03:05:59.664Z,77.90
2018-12-08T03:08:27.124Z,77.40
2018-12-08T03:10:54.590Z,77.00
2018-12-08T03:13:22.083Z,76.90
2018-12-08T03:15:49.550Z,76.70
2018-12-08T03:18:16.988Z,76.60
2018-12-08T03:20:44.441Z,76.70
2018-12-08T03:23:11.947Z,76.50
2018-12-08T03:25:39.466Z,76.50
2018-12-08T03:28:07.025Z,76.00
2018-12-08T03:30:34.655Z,76.10
2018-12-08T03:33:02.091Z,75.80
2018-12-08T03:35:29.535Z,75.80
2018-12-08T03:37:56.991Z,75.70
2018-12-08T03:40:24.526Z,75.80
2018-12-08T03:42:52.053Z,75.60
2018-12-08T03:45:19.791Z,75.60
2018-12-08T03:47:47.265Z,75.40
2018-12-08T03:50:14.718Z,75.40
2018-12-08T03:52:42.270Z,75.40
2018-12-08T03:55:09.730Z,75.30
2018-12-08T03:57:37.290Z,75.20
2018-12-08T04:00:07.188Z,75.20
2018-12-08T04:02:36.024Z,75.30
2018-12-08T04:05:04.060Z,75.10
2018-12-08T04:07:31.632Z,75.20
2018-12-08T04:09:59.071Z,75.30
2018-12-08T04:12:26.521Z,75.40
2018-12-08T04:14:53.993Z,75.60
2018-12-08T04:17:21.447Z,75.60
2018-12-08T04:19:48.917Z,75.70
2018-12-08T04:22:16.361Z,75.80
2018-12-08T04:24:43.815Z,75.80
2018-12-08T04:27:11.293Z,76.30
2018-12-08T04:29:39.150Z,76.30
2018-12-08T04:32:06.676Z,76.30
2018-12-08T04:34:34.239Z,76.20
2018-12-08T04:37:01.686Z,76.00
2018-12-08T04:39:29.146Z,76.00
2018-12-08T04:41:56.632Z,75.80
2018-12-08T04:44:24.093Z,75.50
2018-12-08T04:46:51.678Z,75.80
2018-12-08T04:49:19.126Z,75.80
2018-12-08T04:51:46.660Z,76.20
2018-12-08T04:54:14.148Z,76.30
2018-12-08T04:56:41.706Z,76.30
2018-12-08T04:59:09.153Z,76.30
2018-12-08T05:01:36.729Z,76.20
2018-12-08T05:04:04.280Z,76.10
2018-12-08T05:06:31.772Z,76.40
2018-12-08T05:08:59.196Z,76.30
2018-12-08T05:11:26.669Z,76.50
2018-12-08T05:13:54.151Z,76.50
2018-12-08T05:16:21.656Z,76.80
2018-12-08T05:18:49.194Z,76.70
2018-12-08T05:21:16.652Z,76.70
2018-12-08T05:23:44.647Z,76.50
2018-12-08T05:26:12.156Z,76.50
2018-12-08T05:28:39.587Z,76.80
2018-12-08T05:31:07.032Z,76.70
2018-12-08T05:33:34.575Z,77.00
2018-12-08T05:36:02.071Z,77.10
2018-12-08T05:38:29.568Z,77.20
2018-12-08T05:40:57.064Z,77.20
2018-12-08T05:43:24.519Z,77.30
2018-12-08T05:45:51.947Z,77.60
2018-12-08T05:48:19.676Z,77.30
2018-12-08T05:50:47.627Z,77.40
2018-12-08T05:53:15.077Z,76.90
2018-12-08T05:55:42.562Z,77.10
2018-12-08T05:58:09.998Z,76.90
2018-12-08T06:00:38.058Z,77.10
2018-12-08T06:03:05.498Z,77.10
2018-12-08T06:05:32.934Z,76.80
2018-12-08T06:08:00.468Z,77.10
2018-12-08T06:10:28.008Z,77.10
2018-12-08T06:12:55.474Z,76.70
2018-12-08T06:15:22.951Z,76.70
2018-12-08T06:17:50.419Z,76.50
2018-12-08T06:20:18.072Z,76.60
2018-12-08T06:22:45.533Z,76.40
2018-12-08T06:25:15.705Z,76.40
2018-12-08T06:27:47.143Z,76.40
2018-12-08T06:30:15.480Z,76.40
2018-12-08T06:32:42.926Z,76.30
2018-12-08T06:35:10.368Z,76.30
2018-12-08T06:37:38.055Z,76.10
2018-12-08T06:40:06.362Z,76.10
2018-12-08T06:42:34.950Z,76.10
2018-12-08T06:45:02.462Z,76.10
2018-12-08T06:47:29.928Z,75.90
2018-12-08T06:49:57.581Z,75.90
2018-12-08T06:52:25.104Z,75.70
2018-12-08T06:54:52.589Z,75.70
2018-12-08T06:57:20.042Z,75.60
2018-12-08T06:59:47.559Z,75.50
2018-12-08T07:02:15.004Z,75.40
2018-12-08T07:04:42.454Z,75.50
2018-12-08T07:07:09.916Z,75.20
2018-12-08T07:09:37.395Z,75.20
2018-12-08T07:12:05.101Z,75.00
2018-12-08T07:14:32.555Z,75.30
2018-12-08T07:17:00.017Z,75.50
2018-12-08T07:19:27.493Z,75.90
2018-12-08T07:21:55.057Z,76.00
2018-12-08T07:24:22.618Z,76.10
2018-12-08T07:26:50.081Z,75.90
2018-12-08T07:29:17.845Z,75.90
2018-12-08T07:31:45.272Z,76.10
2018-12-08T07:34:12.736Z,76.30
2018-12-08T07:36:40.195Z,76.20
2018-12-08T07:39:08.094Z,76.20
2018-12-08T07:41:35.639Z,76.20
2018-12-08T07:44:03.133Z,76.20
2018-12-08T07:46:30.681Z,76.20
2018-12-08T07:48:58.141Z,76.00
2018-12-08T07:51:25.591Z,75.90
2018-12-08T07:53:53.091Z,76.00
2018-12-08T07:56:20.559Z,76.20
2018-12-08T07:58:48.082Z,76.50
2018-12-08T08:01:15.513Z,76.80
2018-12-08T08:03:42.979Z,77.00
2018-12-08T08:06:10.485Z,77.50
2018-12-08T08:08:37.941Z,77.30
2018-12-08T08:11:05.377Z,77.50
2018-12-08T08:13:32.826Z,78.20
2018-12-08T08:16:00.324Z,77.90
2018-12-08T08:18:27.770Z,78.20
2018-12-08T08:20:55.308Z,78.00
2018-12-08T08:23:23.827Z,78.00
2018-12-08T08:25:51.258Z,78.20
2018-12-08T08:28:18.774Z,77.90
2018-12-08T08:30:47.186Z,77.70
2018-12-08T08:33:14.805Z,78.10
2018-12-08T08:35:42.262Z,77.90
2018-12-08T08:38:09.733Z,77.70
2018-12-08T08:40:37.191Z,77.80
2018-12-08T08:43:05.744Z,78.20
2018-12-08T08:45:33.185Z,78.70
2018-12-08T08:48:00.641Z,79.00
2018-12-08T08:50:28.174Z,78.90
2018-12-08T08:52:55.969Z,78.90
2018-12-08T08:55:23.431Z,79.10
2018-12-08T08:57:50.972Z,78.60
2018-12-08T09:00:19.193Z,78.60
2018-12-08T09:02:46.719Z,78.50
2018-12-08T09:05:14.309Z,78.30
2018-12-08T09:07:42.659Z,78.60
2018-12-08T09:10:10.644Z,78.60
2018-12-08T09:12:38.189Z,78.00
2018-12-08T09:15:07.364Z,78.40
2018-12-08T09:17:34.817Z,78.50
2018-12-08T09:20:02.370Z,78.30
2018-12-08T09:22:29.823Z,78.20
2018-12-08T09:24:57.339Z,78.40
2018-12-08T09:27:24.788Z,78.70
2018-12-08T09:29:52.255Z,78.80
2018-12-08T09:32:19.701Z,79.90
2018-12-08T09:34:47.164Z,80.30
2018-12-08T09:37:14.668Z,81.20
2018-12-08T09:39:42.237Z,81.90
2018-12-08T09:42:10.449Z,81.80
2018-12-08T09:47:28.651Z,82.50
2018-12-08T09:49:56.089Z,82.50
2018-12-08T09:52:23.619Z,82.50
2018-12-08T09:54:51.051Z,82.80
2018-12-08T09:57:18.493Z,82.70
2018-12-08T09:59:46.468Z,83.30
2018-12-08T10:02:14.734Z,82.70
2018-12-08T10:04:42.161Z,82.70
2018-12-08T10:07:09.661Z,82.70
2018-12-08T10:09:37.087Z,81.80
2018-12-08T10:12:04.887Z,82.30
2018-12-08T10:14:32.320Z,81.90
2018-12-08T10:16:59.828Z,81.60
2018-12-08T10:19:27.296Z,81.60
2018-12-08T10:21:54.777Z,82.00
2018-12-08T10:24:22.229Z,81.30
2018-12-08T10:26:49.674Z,80.30
2018-12-08T10:29:17.135Z,79.60
2018-12-08T10:31:44.564Z,78.90
2018-12-08T10:34:12.048Z,79.60
2018-12-08T10:36:39.607Z,79.30
2018-12-08T10:39:07.547Z,77.80
2018-12-08T10:41:35.078Z,78.50
2018-12-08T10:44:02.608Z,77.90
2018-12-08T10:46:30.091Z,77.30
2018-12-08T10:48:57.551Z,77.50
2018-12-08T10:51:25.130Z,77.00
2018-12-08T10:53:52.641Z,76.60
2018-12-08T10:56:20.221Z,77.00
2018-12-08T10:58:47.703Z,76.00
2018-12-08T11:01:18.194Z,75.90
2018-12-08T11:03:47.011Z,76.10
2018-12-08T11:06:14.484Z,75.70
2018-12-08T11:08:41.992Z,75.00
2018-12-08T11:11:09.465Z,75.10
2018-12-08T11:13:36.959Z,74.80
2018-12-08T11:16:04.520Z,74.30
2018-12-08T11:18:32.003Z,74.00
2018-12-08T11:20:59.571Z,74.60
2018-12-08T11:23:26.997Z,74.90
2018-12-08T11:25:55.292Z,74.80
2018-12-08T11:28:22.716Z,76.00
2018-12-08T11:30:50.218Z,75.40
2018-12-08T11:33:17.671Z,75.50
2018-12-08T11:35:45.088Z,75.60
2018-12-08T11:38:12.622Z,75.30
2018-12-08T11:40:40.096Z,75.30
2018-12-08T11:43:07.582Z,75.60
2018-12-08T11:45:35.023Z,76.00
2018-12-08T11:48:02.519Z,76.70
2018-12-08T11:50:30.064Z,76.30
2018-12-08T11:52:57.598Z,76.70
2018-12-08T11:55:30.182Z,76.30
2018-12-08T11:57:54.567Z,76.50
2018-12-08T12:00:22.137Z,76.40
2018-12-08T12:02:49.603Z,76.30
2018-12-08T12:05:17.064Z,76.30
2018-12-08T12:07:44.507Z,76.50
2018-12-08T12:10:11.981Z,76.30
2018-12-08T12:12:39.413Z,76.20
2018-12-08T12:15:06.959Z,75.70
2018-12-08T12:17:34.566Z,76.30
2018-12-08T12:20:02.112Z,76.10
2018-12-08T12:22:29.600Z,75.60
2018-12-08T12:24:57.404Z,75.90
2018-12-08T12:27:24.956Z,76.50
2018-12-08T12:29:52.438Z,78.00
2018-12-08T12:32:19.990Z,78.40
2018-12-08T12:34:47.476Z,78.50
2018-12-08T12:37:14.993Z,78.50
2018-12-08T12:39:42.449Z,79.00
2018-12-08T12:42:09.908Z,78.70
2018-12-08T12:44:37.350Z,78.50
2018-12-08T12:47:04.819Z,78.40
2018-12-08T12:49:32.336Z,78.10
2018-12-08T12:51:59.865Z,77.80
2018-12-08T12:54:27.334Z,77.40
2018-12-08T12:56:54.789Z,76.90
2018-12-08T12:59:22.648Z,76.60
2018-12-08T13:01:50.244Z,76.50
2018-12-08T13:04:17.688Z,76.50
2018-12-08T13:06:45.130Z,76.90
2018-12-08T13:09:12.568Z,77.00
2018-12-08T13:11:40.901Z,76.90
2018-12-08T13:14:08.478Z,77.10
2018-12-08T13:16:36.126Z,76.90
2018-12-08T13:19:03.690Z,76.90
2018-12-08T13:21:31.191Z,76.90
2018-12-08T13:23:58.716Z,77.10
2018-12-08T13:26:26.231Z,76.90
2018-12-08T13:28:53.683Z,77.00
2018-12-08T13:31:21.122Z,77.00
2018-12-08T13:33:51.474Z,77.00
2018-12-08T13:36:18.985Z,77.30
2018-12-08T13:38:46.453Z,78.20
2018-12-08T13:41:13.948Z,79.10
2018-12-08T13:43:45.330Z,79.90
2018-12-08T13:46:12.788Z,80.70
2018-12-08T13:48:40.438Z,80.60
2018-12-08T13:51:08.111Z,80.60
2018-12-08T13:53:36.863Z,80.20
2018-12-08T13:56:04.643Z,80.20
2018-12-08T13:58:32.134Z,80.20
2018-12-08T14:00:59.726Z,80.00
2018-12-08T14:03:27.651Z,80.50
2018-12-08T14:05:55.136Z,80.50
2018-12-08T14:08:22.664Z,79.80
2018-12-08T14:10:50.210Z,80.40
2018-12-08T14:13:18.322Z,80.70
2018-12-08T14:15:45.862Z,80.90
2018-12-08T14:18:14.349Z,81.00
2018-12-08T14:20:41.799Z,81.10
2018-12-08T14:23:09.239Z,80.60
2018-12-08T14:25:37.121Z,80.20
2018-12-08T14:28:04.839Z,80.60
2018-12-08T14:30:32.340Z,80.80
2018-12-08T14:32:59.884Z,79.90
2018-12-08T14:35:27.343Z,80.00
2018-12-08T14:37:54.859Z,80.20
2018-12-08T14:40:22.299Z,79.90
2018-12-08T14:42:49.764Z,79.80
2018-12-08T14:45:17.335Z,79.60
2018-12-08T14:47:44.834Z,79.20
2018-12-08T14:50:12.369Z,79.00
2018-12-08T14:52:39.953Z,79.30
2018-12-08T14:55:07.854Z,79.00
2018-12-08T14:57:35.352Z,79.10
2018-12-08T15:00:03.155Z,78.50
2018-12-08T15:02:30.960Z,78.20
2018-12-08T15:04:58.494Z,78.20
2018-12-08T15:07:26.060Z,78.10
2018-12-08T15:09:53.536Z,77.80
2018-12-08T15:12:21.053Z,78.00
2018-12-08T15:14:48.661Z,77.90
2018-12-08T15:17:16.246Z,77.80
2018-12-08T15:19:43.808Z,78.00
2018-12-08T15:22:11.289Z,78.20
2018-12-08T15:24:38.856Z,78.50
2018-12-08T15:27:06.355Z,78.70
2018-12-08T15:29:33.830Z,78.80
2018-12-08T15:32:01.319Z,79.30
2018-12-08T15:34:28.794Z,79.40
2018-12-08T15:36:56.249Z,79.30
2018-12-08T15:39:23.846Z,79.30
2018-12-08T15:41:51.329Z,79.40
2018-12-08T15:44:18.950Z,79.50
2018-12-08T15:46:46.846Z,79.50
2018-12-08T15:49:14.526Z,79.30
2018-12-08T15:51:42.459Z,79.00
2018-12-08T15:54:09.961Z,79.20
2018-12-08T15:56:38.090Z,79.40
2018-12-08T15:59:06.006Z,79.50
2018-12-08T16:01:33.733Z,79.60
2018-12-08T16:04:01.960Z,79.70
2018-12-08T16:06:29.479Z,79.60
2018-12-08T16:08:56.916Z,79.80
2018-12-08T16:11:24.607Z,79.90
2018-12-08T16:13:52.183Z,79.70
2018-12-08T16:16:19.661Z,79.80
2018-12-08T16:18:47.891Z,79.70
2018-12-08T16:21:15.568Z,79.70
2018-12-08T16:23:43.170Z,79.30
2018-12-08T16:26:10.887Z,79.20
2018-12-08T16:28:38.477Z,79.10
2018-12-08T16:31:06.049Z,79.00
2018-12-08T16:33:34.273Z,78.80
2018-12-08T16:36:01.854Z,78.50
2018-12-08T16:38:29.371Z,78.50
2018-12-08T16:40:56.858Z,78.30
2018-12-08T16:43:24.311Z,78.40
2018-12-08T16:45:52.017Z,78.60
2018-12-08T16:48:20.750Z,78.50
2018-12-08T16:50:48.324Z,78.60
2018-12-08T16:53:15.899Z,78.50
2018-12-08T16:55:43.442Z,78.50
2018-12-08T16:58:11.059Z,78.40
2018-12-08T17:00:38.635Z,78.40
2018-12-08T17:03:06.240Z,78.30
2018-12-08T17:05:34.117Z,78.20
2018-12-08T17:08:01.969Z,78.30
2018-12-08T17:10:29.660Z,78.10
2018-12-08T17:12:57.233Z,78.20
2018-12-08T17:15:24.825Z,78.20
2018-12-08T17:17:52.593Z,78.20
2018-12-08T17:20:20.509Z,78.30
2018-12-08T17:22:48.233Z,78.50
2018-12-08T17:25:15.834Z,78.50
2018-12-08T17:27:43.663Z,78.40
2018-12-08T17:30:11.409Z,78.40
2018-12-08T17:32:39.381Z,78.10
2018-12-08T17:35:08.884Z,78.30
2018-12-08T17:37:36.598Z,78.30
2018-12-08T17:40:07.037Z,78.10
2018-12-08T17:42:35.366Z,78.20
2018-12-08T17:45:03.607Z,78.20
2018-12-08T17:47:31.164Z,78.30
2018-12-08T17:49:58.810Z,78.40
2018-12-08T17:52:27.232Z,78.50
2018-12-08T17:54:56.263Z,78.40
2018-12-08T17:57:25.108Z,78.50
2018-12-08T17:59:53.135Z,78.70
2018-12-08T18:02:21.535Z,78.90
2018-12-08T18:04:49.678Z,79.10
2018-12-08T18:07:17.520Z,79.20
2018-12-08T18:09:45.052Z,79.30
2018-12-08T18:12:13.062Z,79.20
2018-12-08T18:14:40.728Z,79.30
2018-12-08T18:17:08.937Z,79.50
2018-12-08T18:19:36.831Z,79.50
2018-12-08T18:22:04.548Z,79.40
2018-12-08T18:24:32.842Z,79.70
2018-12-08T18:27:01.519Z,79.70
2018-12-08T18:29:29.610Z,79.80
2018-12-08T18:31:57.578Z,79.70
2018-12-08T18:34:25.343Z,80.10
2018-12-08T18:36:52.952Z,80.70
2018-12-08T18:39:20.807Z,81.30
2018-12-08T18:41:48.325Z,81.80
2018-12-08T18:44:16.130Z,81.60
2018-12-08T18:46:43.755Z,82.20
2018-12-08T18:49:11.258Z,82.30
2018-12-08T18:51:38.795Z,82.40
2018-12-08T18:54:06.337Z,82.20
2018-12-08T18:56:33.923Z,82.30
2018-12-08T18:59:01.422Z,82.60
2018-12-08T19:01:28.915Z,82.70
2018-12-08T19:03:56.615Z,82.50
2018-12-08T19:06:24.259Z,82.60
2018-12-08T19:08:51.964Z,82.20
2018-12-08T19:11:19.640Z,82.20
2018-12-08T19:13:47.257Z,82.40
2018-12-08T19:16:14.742Z,82.20
2018-12-08T19:18:42.376Z,82.00
2018-12-08T19:21:11.047Z,82.20
2018-12-08T19:23:43.713Z,82.20
2018-12-08T19:26:08.121Z,82.10
2018-12-08T19:28:35.768Z,82.30
2018-12-08T19:31:03.827Z,82.50
2018-12-08T19:33:31.464Z,82.30
2018-12-08T19:35:59.084Z,82.40
2018-12-08T19:38:26.756Z,82.70
2018-12-08T19:40:54.588Z,82.80
2018-12-08T19:43:24.075Z,82.80
2018-12-08T19:45:51.872Z,83.20
2018-12-08T19:48:19.447Z,83.30
2018-12-08T19:50:47.501Z,83.20
2018-12-08T19:53:17.772Z,83.40
2018-12-08T19:55:45.926Z,83.50
2018-12-08T19:58:14.449Z,83.50
2018-12-08T20:00:42.472Z,83.40
2018-12-08T20:03:10.931Z,83.60
2018-12-08T20:05:38.816Z,83.80
2018-12-08T20:08:06.910Z,84.00
2018-12-08T20:10:35.385Z,84.40
2018-12-08T20:13:03.792Z,84.40
2018-12-08T20:15:31.645Z,84.50
2018-12-08T20:17:59.453Z,84.70
2018-12-08T20:20:27.893Z,84.50
2018-12-08T20:22:56.488Z,84.60
2018-12-08T20:25:24.984Z,84.60
2018-12-08T20:27:53.809Z,84.60
2018-12-08T20:30:22.158Z,84.70
2018-12-08T20:32:50.113Z,84.70
2018-12-08T20:35:18.294Z,84.80
2018-12-08T20:37:46.131Z,84.80
2018-12-08T20:40:14.597Z,84.80
2018-12-08T20:42:43.037Z,84.50
2018-12-08T20:45:11.729Z,84.50
2018-12-08T20:47:40.183Z,84.50
2018-12-08T20:50:08.481Z,84.30
2018-12-08T20:52:36.776Z,84.30
2018-12-08T20:55:04.873Z,84.20
2018-12-08T20:57:34.140Z,84.20
2018-12-08T21:00:02.442Z,84.30
2018-12-08T21:02:30.446Z,84.40
2018-12-08T21:04:58.211Z,84.50
2018-12-08T21:07:26.147Z,84.50
2018-12-08T21:09:54.366Z,84.30
2018-12-08T21:12:22.411Z,84.30
2018-12-08T21:14:50.531Z,84.20
2018-12-08T21:17:18.652Z,84.40
2018-12-08T21:19:47.037Z,84.20
2018-12-08T21:22:15.406Z,84.20
2018-12-08T21:24:43.897Z,84.10
2018-12-08T21:27:11.688Z,84.00
2018-12-08T21:29:39.650Z,84.30
2018-12-08T21:32:07.755Z,84.70
2018-12-08T21:34:35.291Z,85.50
2018-12-08T21:37:02.836Z,86.00
2018-12-08T21:39:30.861Z,86.20
2018-12-08T21:41:59.531Z,86.10
2018-12-08T21:44:27.772Z,86.30
2018-12-08T21:46:55.977Z,86.40
2018-12-08T21:49:23.521Z,86.40
2018-12-08T21:51:51.038Z,86.30
2018-12-08T21:54:19.740Z,86.40
2018-12-08T21:56:47.237Z,86.50
2018-12-08T21:59:14.868Z,86.80
2018-12-08T22:01:42.411Z,86.80
2018-12-08T22:04:09.959Z,86.90
2018-12-08T22:06:37.823Z,86.80
2018-12-08T22:09:06.002Z,86.90
2018-12-08T22:11:33.665Z,87.10
2018-12-08T22:14:01.333Z,87.40
2018-12-08T22:16:29.000Z,87.70
2018-12-08T22:18:56.469Z,87.70
2018-12-08T22:21:24.436Z,87.80
2018-12-08T22:23:51.997Z,87.70
2018-12-08T22:26:19.566Z,87.50
2018-12-08T22:28:47.052Z,87.40
2018-12-08T22:31:14.533Z,87.20
2018-12-08T22:33:41.992Z,86.80
2018-12-08T22:36:09.519Z,86.60
2018-12-08T22:38:36.958Z,86.60
2018-12-08T22:41:04.497Z,86.70
2018-12-08T22:43:32.149Z,86.80
2018-12-08T22:45:59.655Z,87.20
2018-12-08T22:48:27.210Z,87.10
2018-12-08T22:50:54.882Z,87.40
2018-12-08T22:53:22.355Z,87.20
2018-12-08T22:55:52.722Z,87.30
2018-12-08T22:58:20.424Z,87.40
2018-12-08T23:00:48.789Z,87.70
2018-12-08T23:03:16.476Z,87.50
2018-12-08T23:05:44.016Z,88.00
2018-12-08T23:08:11.705Z,88.00
2018-12-08T23:10:39.253Z,88.10
2018-12-08T23:13:06.799Z,88.20
2018-12-08T23:15:34.392Z,88.20
2018-12-08T23:18:02.004Z,88.40
2018-12-08T23:20:29.474Z,88.10
2018-12-08T23:22:56.904Z,87.00
2018-12-08T23:25:24.382Z,86.40
2018-12-08T23:27:51.920Z,86.10
2018-12-08T23:30:19.387Z,85.50
2018-12-08T23:32:46.851Z,85.00
2018-12-08T23:35:14.285Z,84.70
2018-12-08T23:37:41.852Z,84.70
2018-12-08T23:40:09.441Z,84.70
2018-12-08T23:42:36.912Z,84.80
2018-12-08T23:45:04.822Z,84.70
2018-12-08T23:47:32.321Z,84.40
2018-12-08T23:49:59.763Z,84.60
2018-12-08T23:52:27.339Z,85.00
2018-12-08T23:54:54.782Z,85.10
2018-12-08T23:57:22.337Z,84.30
2018-12-08T23:59:49.811Z,83.90
